Dades meteomassalio
Diari Summary for Noviembre 14, 2017 Units:  English    Metric   Both
« Previous Day
Next Day »
Diari Semanal Mensual Anual Personalitzat
  Maxima: Minima: Mijana:
Temperatura: TemperatureC °F -2.2 °F 6.1 °F
Rosada: DewpointC °F -10.7 °F -3.3 °F
Humitat: Humidity % 35 % 52 %
Velocitat del vent: WindSpeedKMH mph 0.0 mph 18.4 mph
Racha vent: WindSpeedGustKMH mph - -
Vent:- - WNW
Pressio: PressurehPa in 1021.9 in -
Pluja: 0.0 in    
Historical Graphs
 
 
Tabular Data for Noviembre 14, 2017
Time Temperature Dew Point Pressure Wind Wind Speed Wind Gust Humidity Rainfall Rate (Hourly) solar Conditions
TemperatureC °F DewpointC °F PressurehPa in Calm     Humidity % HourlyPrecipMM in SolarRadiationWatts/m^2 W/m2 Conditions
00:01 6.1 °F -0.2 °F 1022.6 in NW 29.0 mph 29.0 mph 64 % 0.0 in 0.0 W/m2 CLR
00:06 6.1 °F -0.2 °F 1022.6 in NW 38.9 mph 38.9 mph 64 % 0.0 in 0.0 W/m2 CLR
00:11 6.1 °F -0.2 °F 1022.6 in WNW 24.1 mph 24.1 mph 64 % 0.0 in 0.0 W/m2 CLR
00:16 6.1 °F -0.2 °F 1022.6 in NNW 25.7 mph 25.7 mph 64 % 0.0 in 0.0 W/m2 CLR
00:21 5.6 °F -0.7 °F 1022.6 in WNW 20.4 mph 20.4 mph 64 % 0.0 in 0.0 W/m2 CLR
00:26 5.6 °F -0.7 °F 1022.6 in WNW 31.5 mph 31.5 mph 64 % 0.0 in 0.0 W/m2 CLR
00:32 5.6 °F -0.7 °F 1022.2 in NW 25.9 mph 25.9 mph 64 % 0.0 in 0.0 W/m2 CLR
00:37 5.6 °F -0.7 °F 1022.2 in NNW 35.2 mph 35.2 mph 64 % 0.0 in 0.0 W/m2 CLR
00:42 5.6 °F -0.7 °F 1022.2 in NW 20.4 mph 20.4 mph 64 % 0.0 in 0.0 W/m2 CLR
00:47 5.6 °F -0.7 °F 1022.2 in NW 24.1 mph 24.1 mph 64 % 0.0 in 0.0 W/m2 CLR
00:52 5.6 °F -0.7 °F 1022.2 in NW 31.5 mph 31.5 mph 64 % 0.0 in 0.0 W/m2 CLR
00:57 5.6 °F -0.7 °F 1021.9 in NW 31.5 mph 31.5 mph 64 % 0.0 in 0.0 W/m2 CLR
01:02 5.6 °F -0.7 °F 1022.2 in NW 24.1 mph 24.1 mph 64 % 0.0 in 0.0 W/m2 CLR
01:04 5.6 °F -0.7 °F 1021.9 in NW 29.6 mph 29.6 mph 64 % 0.0 in 0.0 W/m2 CLR
01:09 5.6 °F -0.7 °F 1022.2 in NW 19.3 mph 19.3 mph 64 % 0.0 in 0.0 W/m2 CLR
01:14 5.6 °F -0.7 °F 1022.2 in WNW 24.1 mph 24.1 mph 64 % 0.0 in 0.0 W/m2 CLR
01:19 5.6 °F -0.7 °F 1022.2 in WNW 31.5 mph 31.5 mph 64 % 0.0 in 0.0 W/m2 CLR
01:24 5.6 °F -0.7 °F 1022.2 in NW 29.6 mph 29.6 mph 64 % 0.0 in 0.0 W/m2 CLR
01:29 5.6 °F -0.7 °F 1022.2 in WNW 25.9 mph 25.9 mph 64 % 0.0 in 0.0 W/m2 CLR
01:34 5.6 °F -0.7 °F 1022.2 in NNW 24.1 mph 24.1 mph 64 % 0.0 in 0.0 W/m2 CLR
01:39 5.6 °F -0.7 °F 1022.2 in WNW 31.5 mph 31.5 mph 64 % 0.0 in 0.0 W/m2 CLR
01:44 5.6 °F -0.7 °F 1022.2 in WNW 24.1 mph 24.1 mph 64 % 0.0 in 0.0 W/m2 CLR
01:49 5.6 °F -0.7 °F 1022.6 in NW 18.5 mph 18.5 mph 64 % 0.0 in 0.0 W/m2 CLR
01:54 5.6 °F -0.7 °F 1022.6 in NW 19.3 mph 19.3 mph 64 % 0.0 in 0.0 W/m2 CLR
01:59 5.6 °F -0.7 °F 1022.6 in NNW 27.8 mph 27.8 mph 64 % 0.0 in 0.0 W/m2 CLR
02:04 5.6 °F -0.7 °F 1022.6 in WNW 31.5 mph 31.5 mph 64 % 0.0 in 0.0 W/m2 CLR
02:09 5.6 °F -0.7 °F 1022.6 in NW 29.6 mph 29.6 mph 64 % 0.0 in 0.0 W/m2 CLR
02:14 5.6 °F -0.7 °F 1022.6 in NW 24.1 mph 24.1 mph 64 % 0.0 in 0.0 W/m2 CLR
02:19 5.6 °F -0.7 °F 1022.6 in NW 19.3 mph 19.3 mph 64 % 0.0 in 0.0 W/m2 CLR
02:24 5.6 °F -0.7 °F 1022.6 in NW 29.0 mph 29.0 mph 64 % 0.0 in 0.0 W/m2 CLR
02:35 5.6 °F -0.7 °F 1022.6 in WNW 32.2 mph 32.2 mph 64 % 0.0 in 0.0 W/m2 CLR
02:40 5.6 °F -0.7 °F 1022.6 in WNW 25.7 mph 25.7 mph 64 % 0.0 in 0.0 W/m2 CLR
02:45 5.6 °F -0.7 °F 1022.6 in NW 25.9 mph 25.9 mph 64 % 0.0 in 0.0 W/m2 CLR
02:50 5.6 °F -0.7 °F 1022.2 in NW 25.9 mph 25.9 mph 64 % 0.0 in 0.0 W/m2 CLR
02:55 5.6 °F -0.7 °F 1022.2 in NW 25.9 mph 25.9 mph 64 % 0.0 in 0.0 W/m2 CLR
03:00 5.6 °F -0.7 °F 1022.6 in WNW 31.5 mph 31.5 mph 64 % 0.0 in 0.0 W/m2 CLR
03:05 5.0 °F -1.3 °F 1022.2 in NW 25.9 mph 25.9 mph 64 % 0.0 in 0.0 W/m2 CLR
03:10 5.0 °F -1.4 °F 1022.2 in NW 30.6 mph 30.6 mph 63 % 0.0 in 0.0 W/m2 CLR
03:15 5.6 °F -0.9 °F 1022.2 in NW 24.1 mph 24.1 mph 63 % 0.0 in 0.0 W/m2 CLR
03:20 5.6 °F -0.9 °F 1022.2 in NW 29.6 mph 29.6 mph 63 % 0.0 in 0.0 W/m2 CLR
03:25 5.6 °F -0.9 °F 1021.9 in NW 27.8 mph 27.8 mph 63 % 0.0 in 0.0 W/m2 CLR
03:31 5.6 °F -0.9 °F 1021.9 in NW 20.4 mph 20.4 mph 63 % 0.0 in 0.0 W/m2 CLR
03:36 5.6 °F -0.9 °F 1021.9 in WNW 25.9 mph 25.9 mph 63 % 0.0 in 0.0 W/m2 CLR
03:41 5.0 °F -1.4 °F 1021.9 in WNW 31.5 mph 31.5 mph 63 % 0.0 in 0.0 W/m2 CLR
03:46 5.0 °F -1.4 °F 1021.9 in NW 22.2 mph 22.2 mph 63 % 0.0 in 0.0 W/m2 CLR
03:51 5.0 °F -1.4 °F 1022.2 in WNW 29.6 mph 29.6 mph 63 % 0.0 in 0.0 W/m2 CLR
03:56 5.0 °F -1.4 °F 1021.9 in NW 16.7 mph 16.7 mph 63 % 0.0 in 0.0 W/m2 CLR
04:01 5.0 °F -1.4 °F 1022.2 in WNW 22.2 mph 22.2 mph 63 % 0.0 in 0.0 W/m2 CLR
04:06 5.0 °F -1.4 °F 1021.9 in NW 25.9 mph 25.9 mph 63 % 0.0 in 0.0 W/m2 CLR
04:11 5.0 °F -1.7 °F 1021.9 in NW 25.9 mph 25.9 mph 62 % 0.0 in 0.0 W/m2 CLR
04:16 5.0 °F -1.7 °F 1021.9 in NW 31.5 mph 31.5 mph 62 % 0.0 in 0.0 W/m2 CLR
04:21 5.0 °F -1.7 °F 1021.9 in NW 31.5 mph 31.5 mph 62 % 0.0 in 0.0 W/m2 CLR
04:22 5.0 °F -1.7 °F 1021.9 in NW 24.1 mph 24.1 mph 62 % 0.0 in 0.0 W/m2 CLR
04:27 5.0 °F -1.7 °F 1022.2 in WNW 29.6 mph 29.6 mph 62 % 0.0 in 0.0 W/m2 CLR
04:32 5.0 °F -1.7 °F 1021.9 in WNW 25.7 mph 25.7 mph 62 % 0.0 in 0.0 W/m2 CLR
04:37 5.0 °F -1.7 °F 1021.9 in WNW 25.9 mph 25.9 mph 62 % 0.0 in 0.0 W/m2 CLR
04:42 5.0 °F -1.7 °F 1021.9 in NW 25.9 mph 25.9 mph 62 % 0.0 in 0.0 W/m2 CLR
04:47 5.0 °F -1.7 °F 1021.9 in NW 25.7 mph 25.7 mph 62 % 0.0 in 0.0 W/m2 CLR
04:53 5.0 °F -1.7 °F 1021.9 in WNW 31.5 mph 31.5 mph 62 % 0.0 in 0.0 W/m2 CLR
04:58 5.0 °F -1.7 °F 1021.9 in NW 27.8 mph 27.8 mph 62 % 0.0 in 0.0 W/m2 CLR
05:03 5.0 °F -1.7 °F 1021.9 in NW 31.5 mph 31.5 mph 62 % 0.0 in 0.0 W/m2 CLR
05:08 5.0 °F -1.7 °F 1021.9 in WNW 33.3 mph 33.3 mph 62 % 0.0 in 0.0 W/m2 CLR
05:13 5.0 °F -1.7 °F 1021.9 in NW 24.1 mph 24.1 mph 62 % 0.0 in 0.0 W/m2 CLR
05:18 5.0 °F -1.7 °F 1021.9 in NW 24.1 mph 24.1 mph 62 % 0.0 in 0.0 W/m2 CLR
05:23 5.0 °F -1.7 °F 1022.2 in NW 27.8 mph 27.8 mph 62 % 0.0 in 0.0 W/m2 CLR
05:28 5.0 °F -1.7 °F 1022.2 in WNW 22.2 mph 22.2 mph 62 % 0.0 in 0.0 W/m2 CLR
05:33 5.0 °F -1.7 °F 1022.2 in WNW 19.3 mph 19.3 mph 62 % 0.0 in 0.0 W/m2 CLR
05:38 5.0 °F -1.7 °F 1022.2 in WNW 16.7 mph 16.7 mph 62 % 0.0 in 0.0 W/m2 CLR
05:43 4.4 °F -2.2 °F 1022.2 in NW 16.1 mph 16.1 mph 62 % 0.0 in 0.0 W/m2 CLR
05:48 4.4 °F -2.2 °F 1022.2 in NW 18.5 mph 18.5 mph 62 % 0.0 in 0.0 W/m2 CLR
05:53 4.4 °F -2.2 °F 1022.6 in WNW 18.5 mph 18.5 mph 62 % 0.0 in 0.0 W/m2 CLR
05:58 4.4 °F -2.2 °F 1022.6 in NW 20.4 mph 20.4 mph 62 % 0.0 in 0.0 W/m2 CLR
06:03 4.4 °F -2.4 °F 1022.2 in NW 18.5 mph 18.5 mph 61 % 0.0 in 0.0 W/m2 CLR
06:08 4.4 °F -2.4 °F 1022.6 in WNW 22.2 mph 22.2 mph 61 % 0.0 in 0.0 W/m2 CLR
06:13 4.4 °F -2.4 °F 1022.6 in WNW 18.5 mph 18.5 mph 61 % 0.0 in 0.0 W/m2 CLR
06:18 4.4 °F -2.4 °F 1022.6 in WNW 18.5 mph 18.5 mph 61 % 0.0 in 0.0 W/m2 CLR
06:23 4.4 °F -2.4 °F 1022.6 in West 18.5 mph 18.5 mph 61 % 0.0 in 0.0 W/m2 CLR
06:28 4.4 °F -2.4 °F 1022.6 in WNW 13.0 mph 13.0 mph 61 % 0.0 in 0.0 W/m2 CLR
06:33 4.4 °F -2.2 °F 1022.6 in WNW 11.3 mph 11.3 mph 62 % 0.0 in 0.0 W/m2 CLR
06:38 3.9 °F -2.7 °F 1022.6 in WNW 12.9 mph 12.9 mph 62 % 0.0 in 0.0 W/m2 CLR
06:43 3.9 °F -2.7 °F 1022.6 in WNW 17.7 mph 17.7 mph 62 % 0.0 in 0.0 W/m2 CLR
06:48 3.3 °F -3.3 °F 1022.6 in WNW 22.2 mph 22.2 mph 62 % 0.0 in 0.0 W/m2 CLR
06:53 3.9 °F -2.7 °F 1022.6 in WNW 25.9 mph 25.9 mph 62 % 0.0 in 0.0 W/m2 CLR
06:58 4.4 °F -2.4 °F 1022.6 in NW 20.4 mph 20.4 mph 61 % 0.0 in 0.0 W/m2 CLR
07:03 4.4 °F -2.4 °F 1022.6 in WNW 24.1 mph 24.1 mph 61 % 0.0 in 0.0 W/m2 CLR
07:08 3.9 °F -2.9 °F 1022.6 in WNW 22.2 mph 22.2 mph 61 % 0.0 in 0.0 W/m2 CLR
07:13 3.9 °F -2.9 °F 1022.6 in WNW 16.7 mph 16.7 mph 61 % 0.0 in 0.0 W/m2 CLR
07:18 4.4 °F -2.4 °F 1022.9 in WNW 18.5 mph 18.5 mph 61 % 0.0 in 0.0 W/m2 CLR
07:19 4.4 °F -2.2 °F 1022.9 in West 27.8 mph 27.8 mph 62 % 0.0 in 0.0 W/m2 CLR
07:24 4.4 °F -2.2 °F 1022.9 in NW 16.7 mph 16.7 mph 62 % 0.0 in 0.0 W/m2 CLR
07:29 4.4 °F -2.2 °F 1022.9 in West 9.7 mph 9.7 mph 62 % 0.0 in 0.0 W/m2 CLR
07:34 4.4 °F -2.2 °F 1022.9 in WSW 12.9 mph 12.9 mph 62 % 0.0 in 0.0 W/m2 CLR
07:39 4.4 °F -2.0 °F 1022.9 in West 18.5 mph 18.5 mph 63 % 0.0 in 0.0 W/m2 OVC
07:44 5.0 °F -1.4 °F 1022.9 in WNW 16.7 mph 16.7 mph 63 % 0.0 in 0.0 W/m2 OVC
07:49 4.4 °F -2.0 °F 1022.9 in West 18.5 mph 18.5 mph 63 % 0.0 in 7.0 W/m2 OVC
07:54 4.4 °F -2.0 °F 1022.9 in West 14.8 mph 14.8 mph 63 % 0.0 in 9.0 W/m2 OVC
07:59 3.9 °F -2.7 °F 1023.2 in West 16.7 mph 16.7 mph 62 % 0.0 in 11.0 W/m2 OVC
08:04 4.4 °F -2.2 °F 1023.2 in WNW 16.7 mph 16.7 mph 62 % 0.0 in 12.0 W/m2 OVC
08:09 4.4 °F -2.2 °F 1023.2 in West 14.8 mph 14.8 mph 62 % 0.0 in 14.0 W/m2 OVC
08:14 4.4 °F -2.2 °F 1023.2 in West 11.1 mph 11.1 mph 62 % 0.0 in 19.0 W/m2 OVC
08:19 4.4 °F -2.2 °F 1023.6 in West 13.0 mph 13.0 mph 62 % 0.0 in 25.0 W/m2 OVC
08:24 5.0 °F -1.9 °F 1023.2 in WSW 9.3 mph 9.3 mph 61 % 0.0 in 37.0 W/m2 OVC
08:29 5.0 °F -2.1 °F 1023.2 in West 9.3 mph 9.3 mph 60 % 0.0 in 46.0 W/m2 OVC
08:34 5.0 °F -2.1 °F 1023.2 in West 11.1 mph 11.1 mph 60 % 0.0 in 60.0 W/m2 OVC
08:39 5.0 °F -2.3 °F 1023.2 in WSW 9.3 mph 9.3 mph 59 % 0.0 in 72.0 W/m2 OVC
08:44 5.0 °F -2.6 °F 1023.2 in West 18.5 mph 18.5 mph 58 % 0.0 in 84.0 W/m2 OVC
08:49 5.0 °F -2.6 °F 1023.6 in WNW 27.8 mph 27.8 mph 58 % 0.0 in 97.0 W/m2 BKN
08:54 5.6 °F -2.3 °F 1023.2 in NW 24.1 mph 24.1 mph 57 % 0.0 in 116.0 W/m2 SCT
08:59 5.6 °F -2.6 °F 1023.2 in WNW 22.2 mph 22.2 mph 56 % 0.0 in 121.0 W/m2 CLR
09:04 6.1 °F -2.0 °F 1023.6 in NNW 18.5 mph 18.5 mph 56 % 0.0 in 144.0 W/m2 CLR
09:09 6.1 °F -2.0 °F 1023.6 in WNW 18.5 mph 18.5 mph 56 % 0.0 in 158.0 W/m2 CLR
09:14 6.1 °F -2.3 °F 1023.6 in NW 18.5 mph 18.5 mph 55 % 0.0 in 114.0 W/m2 CLR
09:19 6.7 °F -1.7 °F 1023.6 in NW 18.5 mph 18.5 mph 55 % 0.0 in 151.0 W/m2 CLR
09:24 6.7 °F -2.0 °F 1023.6 in WNW 20.4 mph 20.4 mph 54 % 0.0 in 114.0 W/m2 CLR
09:29 6.7 °F -1.7 °F 1023.9 in North 25.7 mph 25.7 mph 55 % 0.0 in 172.0 W/m2 CLR
09:34 7.2 °F -1.5 °F 1023.6 in WNW 25.9 mph 25.9 mph 54 % 0.0 in 236.0 W/m2 CLR
09:39 7.2 °F -1.5 °F 1023.6 in WNW 27.8 mph 27.8 mph 54 % 0.0 in 253.0 W/m2 CLR
09:44 7.2 °F -1.7 °F 1023.9 in WNW 22.2 mph 22.2 mph 53 % 0.0 in 265.0 W/m2 CLR
09:49 7.2 °F -1.7 °F 1023.9 in NW 29.6 mph 29.6 mph 53 % 0.0 in 276.0 W/m2 CLR
09:54 7.8 °F -1.2 °F 1023.9 in NW 31.5 mph 31.5 mph 53 % 0.0 in 288.0 W/m2 CLR
09:59 7.8 °F -1.5 °F 1023.9 in WNW 29.6 mph 29.6 mph 52 % 0.0 in 302.0 W/m2 CLR
10:04 7.8 °F -1.5 °F 1023.9 in NW 27.8 mph 27.8 mph 52 % 0.0 in 313.0 W/m2 CLR
10:09 8.3 °F -0.9 °F 1023.9 in NW 27.8 mph 27.8 mph 52 % 0.0 in 323.0 W/m2 CLR
10:14 8.3 °F -0.9 °F 1023.9 in NW 22.2 mph 22.2 mph 52 % 0.0 in 334.0 W/m2 CLR
10:19 8.3 °F -1.2 °F 1023.9 in NW 16.7 mph 16.7 mph 51 % 0.0 in 348.0 W/m2 CLR
10:24 8.3 °F -1.2 °F 1023.9 in NW 18.5 mph 18.5 mph 51 % 0.0 in 357.0 W/m2 CLR
10:29 8.3 °F -1.2 °F 1023.9 in NW 22.5 mph 22.5 mph 51 % 0.0 in 367.0 W/m2 CLR
10:34 8.9 °F -1.0 °F 1023.9 in ESE 32.2 mph 32.2 mph 50 % 0.0 in 374.0 W/m2 CLR
10:39 8.9 °F -1.0 °F 1023.9 in NW 29.6 mph 29.6 mph 50 % 0.0 in 387.0 W/m2 CLR
10:44 8.9 °F -1.0 °F 1023.9 in NNW 20.4 mph 20.4 mph 50 % 0.0 in 394.0 W/m2 CLR
10:49 8.9 °F -1.0 °F 1023.9 in NW 27.8 mph 27.8 mph 50 % 0.0 in 404.0 W/m2 CLR
10:54 9.4 °F -0.7 °F 1023.9 in NW 27.8 mph 27.8 mph 49 % 0.0 in 411.0 W/m2 CLR
10:59 9.4 °F -0.7 °F 1023.9 in NW 35.2 mph 35.2 mph 49 % 0.0 in 420.0 W/m2 CLR
11:04 9.4 °F -0.7 °F 1023.6 in WNW 25.9 mph 25.9 mph 49 % 0.0 in 429.0 W/m2 CLR
11:09 9.4 °F -0.7 °F 1023.6 in NNW 22.2 mph 22.2 mph 49 % 0.0 in 434.0 W/m2 CLR
11:14 9.4 °F -1.1 °F 1023.9 in NNW 29.6 mph 29.6 mph 48 % 0.0 in 441.0 W/m2 CLR
11:19 9.4 °F -1.3 °F 1023.9 in NW 33.3 mph 33.3 mph 47 % 0.0 in 448.0 W/m2 CLR
11:24 10.0 °F -0.5 °F 1023.6 in NW 20.4 mph 20.4 mph 48 % 0.0 in 457.0 W/m2 CLR
11:34 10.6 °F -0.3 °F 1023.6 in NNW 24.1 mph 24.1 mph 47 % 0.0 in 468.0 W/m2 CLR
11:39 10.6 °F -0.6 °F 1023.6 in North 33.3 mph 33.3 mph 46 % 0.0 in 473.0 W/m2 CLR
11:44 10.6 °F -0.9 °F 1023.6 in North 29.0 mph 29.0 mph 45 % 0.0 in 478.0 W/m2 CLR
11:49 10.6 °F -0.6 °F 1023.6 in NNW 25.9 mph 25.9 mph 46 % 0.0 in 482.0 W/m2 CLR
11:54 10.6 °F -1.2 °F 1023.6 in NNW 30.6 mph 30.6 mph 44 % 0.0 in 485.0 W/m2 CLR
12:00 10.6 °F -1.2 °F 1023.6 in NW 19.3 mph 19.3 mph 44 % 0.0 in 489.0 W/m2 CLR
12:05 11.1 °F -0.7 °F 1023.6 in North 29.6 mph 29.6 mph 44 % 0.0 in 496.0 W/m2 CLR
12:10 11.1 °F -1.0 °F 1023.6 in North 25.7 mph 25.7 mph 43 % 0.0 in 497.0 W/m2 CLR
12:15 11.1 °F -1.0 °F 1023.6 in NW 31.5 mph 31.5 mph 43 % 0.0 in 501.0 W/m2 CLR
12:20 11.1 °F -1.3 °F 1023.6 in North 27.8 mph 27.8 mph 42 % 0.0 in 503.0 W/m2 CLR
12:25 11.1 °F -1.3 °F 1023.2 in NNW 31.5 mph 31.5 mph 42 % 0.0 in 503.0 W/m2 CLR
12:30 11.1 °F -1.3 °F 1023.2 in NNW 29.6 mph 29.6 mph 42 % 0.0 in 504.0 W/m2 CLR
12:35 11.7 °F -0.8 °F 1023.2 in North 31.5 mph 31.5 mph 42 % 0.0 in 506.0 W/m2 CLR
12:40 11.7 °F -0.8 °F 1023.2 in NNW 33.3 mph 33.3 mph 42 % 0.0 in 508.0 W/m2 CLR
12:45 12.2 °F -0.7 °F 1023.2 in NW 25.9 mph 25.9 mph 41 % 0.0 in 510.0 W/m2 CLR
12:50 12.2 °F -0.7 °F 1023.2 in NNW 22.2 mph 22.2 mph 41 % 0.0 in 506.0 W/m2 CLR
12:55 11.7 °F -1.2 °F 1023.2 in NNW 27.4 mph 27.4 mph 41 % 0.0 in 506.0 W/m2 CLR
13:00 11.7 °F -1.2 °F 1023.2 in NW 19.3 mph 19.3 mph 41 % 0.0 in 504.0 W/m2 CLR
13:05 11.7 °F -1.5 °F 1023.2 in NNW 27.8 mph 27.8 mph 40 % 0.0 in 504.0 W/m2 CLR
13:10 12.2 °F -0.7 °F 1023.2 in NW 22.5 mph 22.5 mph 41 % 0.0 in 503.0 W/m2 CLR
13:15 11.7 °F -1.2 °F 1023.2 in North 19.3 mph 19.3 mph 41 % 0.0 in 501.0 W/m2 CLR
13:20 12.8 °F -0.5 °F 1023.2 in NNW 25.9 mph 25.9 mph 40 % 0.0 in 497.0 W/m2 CLR
13:25 12.2 °F -1.0 °F 1022.9 in NW 22.2 mph 22.2 mph 40 % 0.0 in 494.0 W/m2 CLR
13:30 12.2 °F -1.3 °F 1022.9 in NNW 18.5 mph 18.5 mph 39 % 0.0 in 492.0 W/m2 CLR
13:35 12.2 °F -1.0 °F 1022.9 in NW 17.7 mph 17.7 mph 40 % 0.0 in 489.0 W/m2 CLR
13:40 12.8 °F -0.8 °F 1022.9 in NNW 25.9 mph 25.9 mph 39 % 0.0 in 485.0 W/m2 CLR
13:41 12.8 °F -0.8 °F 1022.9 in NNW 22.5 mph 22.5 mph 39 % 0.0 in 483.0 W/m2 CLR
13:46 12.2 °F -1.3 °F 1022.6 in NW 22.2 mph 22.2 mph 39 % 0.0 in 480.0 W/m2 CLR
13:51 12.8 °F -1.2 °F 1022.6 in NNW 31.5 mph 31.5 mph 38 % 0.0 in 475.0 W/m2 CLR
13:56 12.8 °F -1.2 °F 1022.6 in NNW 33.3 mph 33.3 mph 38 % 0.0 in 471.0 W/m2 CLR
14:01 12.8 °F -1.2 °F 1022.6 in NW 31.5 mph 31.5 mph 38 % 0.0 in 462.0 W/m2 CLR
14:06 12.8 °F -0.8 °F 1022.2 in NNW 22.5 mph 22.5 mph 39 % 0.0 in 457.0 W/m2 CLR
14:11 12.8 °F -1.2 °F 1022.2 in NNW 25.9 mph 25.9 mph 38 % 0.0 in 452.0 W/m2 CLR
14:16 13.3 °F -0.7 °F 1022.2 in NW 18.5 mph 18.5 mph 38 % 0.0 in 446.0 W/m2 CLR
14:21 13.3 °F -0.7 °F 1022.2 in NW 18.5 mph 18.5 mph 38 % 0.0 in 439.0 W/m2 CLR
14:26 13.3 °F -1.1 °F 1022.2 in NW 29.6 mph 29.6 mph 37 % 0.0 in 431.0 W/m2 CLR
14:31 13.3 °F -1.1 °F 1022.2 in NNW 22.2 mph 22.2 mph 37 % 0.0 in 424.0 W/m2 CLR
14:36 13.3 °F -1.1 °F 1022.2 in NNW 22.2 mph 22.2 mph 37 % 0.0 in 415.0 W/m2 CLR
14:41 13.3 °F -1.4 °F 1022.2 in NW 25.9 mph 25.9 mph 36 % 0.0 in 406.0 W/m2 CLR
14:46 13.3 °F -1.4 °F 1021.9 in NW 25.9 mph 25.9 mph 36 % 0.0 in 397.0 W/m2 CLR
14:51 13.3 °F -1.4 °F 1021.9 in NNW 18.5 mph 18.5 mph 36 % 0.0 in 388.0 W/m2 CLR
14:56 13.3 °F -1.4 °F 1021.9 in NW 25.9 mph 25.9 mph 36 % 0.0 in 378.0 W/m2 CLR
15:01 13.3 °F -1.4 °F 1021.9 in North 31.5 mph 31.5 mph 36 % 0.0 in 367.0 W/m2 CLR
15:06 13.3 °F -1.4 °F 1021.9 in North 29.0 mph 29.0 mph 36 % 0.0 in 357.0 W/m2 CLR
15:11 13.3 °F -1.4 °F 1021.9 in North 31.5 mph 31.5 mph 36 % 0.0 in 346.0 W/m2 CLR
15:16 13.3 °F -1.4 °F 1021.9 in NNW 27.8 mph 27.8 mph 36 % 0.0 in 338.0 W/m2 CLR
15:21 13.3 °F -1.4 °F 1021.9 in NW 22.2 mph 22.2 mph 36 % 0.0 in 327.0 W/m2 CLR
15:26 13.3 °F -1.8 °F 1021.9 in NW 17.7 mph 17.7 mph 35 % 0.0 in 313.0 W/m2 CLR
15:31 13.3 °F -1.8 °F 1021.9 in North 31.5 mph 31.5 mph 35 % 0.0 in 302.0 W/m2 CLR
15:36 13.3 °F -1.8 °F 1021.9 in NW 25.9 mph 25.9 mph 35 % 0.0 in 292.0 W/m2 CLR
15:41 13.3 °F -1.8 °F 1021.9 in NW 24.1 mph 24.1 mph 35 % 0.0 in 279.0 W/m2 CLR
15:46 13.3 °F -1.8 °F 1021.9 in WNW 25.7 mph 25.7 mph 35 % 0.0 in 264.0 W/m2 CLR
15:51 13.3 °F -1.4 °F 1021.9 in North 22.5 mph 22.5 mph 36 % 0.0 in 250.0 W/m2 CLR
15:56 13.3 °F -1.4 °F 1021.9 in NW 22.5 mph 22.5 mph 36 % 0.0 in 239.0 W/m2 CLR
16:01 12.8 °F -1.9 °F 1021.9 in NW 20.9 mph 20.9 mph 36 % 0.0 in 221.0 W/m2 CLR
16:06 12.8 °F -2.3 °F 1021.9 in NW 27.8 mph 27.8 mph 35 % 0.0 in 207.0 W/m2 CLR
16:11 12.8 °F -1.9 °F 1021.9 in NNW 22.2 mph 22.2 mph 36 % 0.0 in 192.0 W/m2 CLR
16:16 12.8 °F -2.3 °F 1021.9 in North 27.8 mph 27.8 mph 35 % 0.0 in 176.0 W/m2 CLR
16:21 12.2 °F -2.4 °F 1021.9 in NNW 31.5 mph 31.5 mph 36 % 0.0 in 160.0 W/m2 CLR
16:26 12.2 °F -2.4 °F 1021.9 in North 25.9 mph 25.9 mph 36 % 0.0 in 146.0 W/m2 CLR
16:31 12.2 °F -2.4 °F 1021.9 in NW 18.5 mph 18.5 mph 36 % 0.0 in 128.0 W/m2 CLR
16:36 12.2 °F -2.4 °F 1021.9 in NNW 18.5 mph 18.5 mph 36 % 0.0 in 113.0 W/m2 CLR
16:41 11.7 °F -2.9 °F 1022.2 in NW 14.8 mph 14.8 mph 36 % 0.0 in 100.0 W/m2 CLR
16:46 11.7 °F -2.9 °F 1022.2 in NW 18.5 mph 18.5 mph 36 % 0.0 in 86.0 W/m2 CLR
16:51 11.7 °F -2.6 °F 1022.2 in NNW 20.4 mph 20.4 mph 37 % 0.0 in 70.0 W/m2 FEW
16:56 11.7 °F -2.6 °F 1022.2 in NNW 17.7 mph 17.7 mph 37 % 0.0 in 56.0 W/m2 SCT
17:01 11.7 °F -2.6 °F 1022.2 in NNW 13.0 mph 13.0 mph 37 % 0.0 in 49.0 W/m2 SCT
17:06 11.7 °F -2.6 °F 1022.2 in NNW 16.7 mph 16.7 mph 37 % 0.0 in 39.0 W/m2 BKN
17:11 11.1 °F -2.7 °F 1022.2 in NW 16.7 mph 16.7 mph 38 % 0.0 in 26.0 W/m2 BKN
17:16 11.1 °F -2.7 °F 1022.2 in NW 18.5 mph 18.5 mph 38 % 0.0 in 19.0 W/m2 BKN
17:21 11.1 °F -2.7 °F 1022.2 in NW 16.7 mph 16.7 mph 38 % 0.0 in 14.0 W/m2 BKN
17:26 10.6 °F -3.2 °F 1022.2 in NW 11.1 mph 11.1 mph 38 % 0.0 in 12.0 W/m2 BKN
17:31 10.6 °F -2.8 °F 1022.6 in NW 7.4 mph 7.4 mph 39 % 0.0 in 11.0 W/m2 BKN
17:36 10.0 °F -3.3 °F 1022.6 in WNW 5.6 mph 5.6 mph 39 % 0.0 in 7.0 W/m2 BKN
17:41 9.4 °F -3.8 °F 1022.6 in NW 9.7 mph 9.7 mph 39 % 0.0 in 5.0 W/m2 OVC
17:46 8.3 °F -4.5 °F 1022.6 in NW 8.0 mph 8.0 mph 40 % 0.0 in 0.0 W/m2 OVC
17:51 7.8 °F -5.0 °F 1022.6 in NW 9.3 mph 9.3 mph 40 % 0.0 in 0.0 W/m2 OVC
17:56 7.8 °F -5.0 °F 1022.6 in NW 9.3 mph 9.3 mph 40 % 0.0 in 0.0 W/m2 CLR
18:01 7.2 °F -5.2 °F 1022.6 in NW 11.1 mph 11.1 mph 41 % 0.0 in 0.0 W/m2 CLR
18:06 6.7 °F -5.7 °F 1022.6 in NW 13.0 mph 13.0 mph 41 % 0.0 in 0.0 W/m2 CLR
18:11 6.1 °F -6.2 °F 1022.9 in WNW 5.6 mph 5.6 mph 41 % 0.0 in 0.0 W/m2 CLR
18:16 6.1 °F -6.2 °F 1022.9 in Calm     41 % 0.0 in 0.0 W/m2 CLR
18:21 5.6 °F -6.7 °F 1023.2 in Calm     41 % 0.0 in 0.0 W/m2 CLR
18:26 5.0 °F -6.9 °F 1022.9 in Calm     42 % 0.0 in 0.0 W/m2 CLR
18:31 5.0 °F -6.3 °F 1023.2 in Calm     44 % 0.0 in 0.0 W/m2 CLR
18:36 4.4 °F -6.8 °F 1023.2 in Calm     44 % 0.0 in 0.0 W/m2 CLR
18:38 4.4 °F -6.8 °F 1023.2 in Calm     44 % 0.0 in 0.0 W/m2 CLR
18:43 4.4 °F -6.5 °F 1023.2 in Calm     45 % 0.0 in 0.0 W/m2 CLR
18:48 3.9 °F -7.3 °F 1023.2 in Calm     44 % 0.0 in 0.0 W/m2 CLR
18:53 3.9 °F -7.3 °F 1023.2 in Calm     44 % 0.0 in 0.0 W/m2 CLR
18:58 3.3 °F -7.5 °F 1023.2 in Calm     45 % 0.0 in 0.0 W/m2 CLR
19:03 2.8 °F -7.4 °F 1023.2 in Calm     47 % 0.0 in 0.0 W/m2 CLR
19:08 2.8 °F -7.2 °F 1023.6 in Calm     48 % 0.0 in 0.0 W/m2 CLR
19:10 2.8 °F -7.2 °F 1023.6 in Calm     48 % 0.0 in 0.0 W/m2 CLR
19:15 2.2 °F -7.7 °F 1023.6 in Calm     48 % 0.0 in 0.0 W/m2 CLR
19:20 2.2 °F -7.4 °F 1023.6 in Calm     49 % 0.0 in 0.0 W/m2 CLR
19:25 2.2 °F -7.2 °F 1023.6 in Calm     50 % 0.0 in 0.0 W/m2 CLR
19:30 2.2 °F -7.4 °F 1023.6 in Calm     49 % 0.0 in 0.0 W/m2 CLR
19:35 1.7 °F -8.2 °F 1023.6 in WNW 13.0 mph 13.0 mph 48 % 0.0 in 0.0 W/m2 CLR
19:40 1.7 °F -8.4 °F 1023.6 in WNW 11.1 mph 11.1 mph 47 % 0.0 in 0.0 W/m2 CLR
19:45 1.7 °F -8.7 °F 1023.6 in WNW 7.4 mph 7.4 mph 46 % 0.0 in 0.0 W/m2 CLR
19:50 1.7 °F -8.7 °F 1023.6 in Calm     46 % 0.0 in 0.0 W/m2 CLR
19:55 1.1 °F -8.9 °F 1023.6 in Calm     47 % 0.0 in 0.0 W/m2 CLR
20:00 1.1 °F -8.4 °F 1023.9 in WSW 5.6 mph 5.6 mph 49 % 0.0 in 0.0 W/m2 CLR
20:05 1.1 °F -8.2 °F 1023.6 in WNW 5.6 mph 5.6 mph 50 % 0.0 in 0.0 W/m2 CLR
20:10 1.1 °F -8.2 °F 1023.9 in Calm     50 % 0.0 in 0.0 W/m2 CLR
20:15 1.1 °F -7.9 °F 1023.9 in Calm     51 % 0.0 in 0.0 W/m2 CLR
20:20 0.6 °F -8.2 °F 1023.9 in Calm     52 % 0.0 in 0.0 W/m2 CLR
20:25 0.6 °F -7.9 °F 1023.9 in Calm     53 % 0.0 in 0.0 W/m2 CLR
20:30 0.6 °F -8.2 °F 1023.9 in WNW 5.6 mph 5.6 mph 52 % 0.0 in 0.0 W/m2 CLR
20:31 0.6 °F -8.2 °F 1023.9 in WNW 5.6 mph 5.6 mph 52 % 0.0 in 0.0 W/m2 CLR
20:36 0.0 °F -8.9 °F 1023.9 in Calm     51 % 0.0 in 0.0 W/m2 CLR
20:41 0.0 °F -8.4 °F 1023.9 in Calm     53 % 0.0 in 0.0 W/m2 CLR
20:46 0.0 °F -8.2 °F 1024.3 in West 7.4 mph 7.4 mph 54 % 0.0 in 0.0 W/m2 CLR
20:51 0.0 °F -8.2 °F 1024.3 in WNW 7.4 mph 7.4 mph 54 % 0.0 in 0.0 W/m2 CLR
20:56 -0.6 °F -8.7 °F 1024.3 in West 7.4 mph 7.4 mph 54 % 0.0 in 0.0 W/m2 CLR
20:59 -0.6 °F -8.7 °F 1024.3 in West 7.4 mph 7.4 mph 54 % 0.0 in 0.0 W/m2 CLR
21:04 -0.6 °F -9.0 °F 1024.3 in WSW 9.3 mph 9.3 mph 53 % 0.0 in 0.0 W/m2 CLR
21:09 -0.6 °F -8.7 °F 1024.3 in WNW 9.3 mph 9.3 mph 54 % 0.0 in 0.0 W/m2 CLR
21:14 -0.6 °F -8.5 °F 1024.3 in WNW 13.0 mph 13.0 mph 55 % 0.0 in 0.0 W/m2 CLR
21:19 -0.6 °F -9.0 °F 1024.6 in West 16.7 mph 16.7 mph 53 % 0.0 in 0.0 W/m2 CLR
21:24 -0.6 °F -9.2 °F 1024.6 in West 7.4 mph 7.4 mph 52 % 0.0 in 0.0 W/m2 CLR
21:29 -0.6 °F -9.4 °F 1024.6 in Calm     51 % 0.0 in 0.0 W/m2 CLR
21:34 -0.6 °F -9.0 °F 1024.6 in Calm     53 % 0.0 in 0.0 W/m2 CLR
21:39 -0.6 °F -8.5 °F 1024.6 in WNW 11.1 mph 11.1 mph 55 % 0.0 in 0.0 W/m2 CLR
21:44 -0.6 °F -9.2 °F 1024.6 in West 11.3 mph 11.3 mph 52 % 0.0 in 0.0 W/m2 CLR
21:49 -0.6 °F -9.4 °F 1024.6 in West 13.0 mph 13.0 mph 51 % 0.0 in 0.0 W/m2 CLR
21:54 -0.6 °F -9.4 °F 1024.6 in Calm     51 % 0.0 in 0.0 W/m2 CLR
21:59 -0.6 °F -9.2 °F 1024.6 in Calm     52 % 0.0 in 0.0 W/m2 CLR
22:04 -1.1 °F -9.3 °F 1024.6 in Calm     54 % 0.0 in 0.0 W/m2 CLR
22:09 -1.1 °F -9.0 °F 1024.6 in Calm     55 % 0.0 in 0.0 W/m2 CLR
22:14 -1.1 °F -8.6 °F 1024.9 in Calm     57 % 0.0 in 0.0 W/m2 CLR
22:20 -1.1 °F -8.8 °F 1024.9 in Calm     56 % 0.0 in 0.0 W/m2 CLR
22:25 -1.1 °F -8.8 °F 1024.6 in WNW 14.8 mph 14.8 mph 56 % 0.0 in 0.0 W/m2 CLR
22:30 -1.1 °F -9.7 °F 1024.9 in WNW 13.0 mph 13.0 mph 52 % 0.0 in 0.0 W/m2 CLR
22:35 -1.1 °F -10.0 °F 1024.9 in West 7.4 mph 7.4 mph 51 % 0.0 in 0.0 W/m2 CLR
22:40 -1.7 °F -10.7 °F 1024.9 in Calm     50 % 0.0 in 0.0 W/m2 CLR
22:45 -1.7 °F -9.8 °F 1024.9 in West 9.3 mph 9.3 mph 54 % 0.0 in 0.0 W/m2 CLR
22:50 -1.7 °F -9.1 °F 1024.9 in West 11.1 mph 11.1 mph 57 % 0.0 in 0.0 W/m2 CLR
22:55 -1.7 °F -9.3 °F 1024.9 in Calm     56 % 0.0 in 0.0 W/m2 CLR
23:00 -1.7 °F -9.1 °F 1024.9 in Calm     57 % 0.0 in 0.0 W/m2 CLR
23:05 -1.7 °F -8.8 °F 1024.9 in Calm     58 % 0.0 in 0.0 W/m2 CLR
23:10 -1.7 °F -8.7 °F 1024.9 in Calm     59 % 0.0 in 0.0 W/m2 CLR
23:15 -2.2 °F -8.9 °F 1024.9 in West 5.6 mph 5.6 mph 60 % 0.0 in 0.0 W/m2 CLR
23:20 -2.2 °F -8.7 °F 1024.9 in WSW 7.4 mph 7.4 mph 61 % 0.0 in 0.0 W/m2 CLR
23:25 -2.2 °F -8.7 °F 1024.9 in West 8.0 mph 8.0 mph 61 % 0.0 in 0.0 W/m2 CLR
23:30 -2.2 °F -8.3 °F 1024.9 in WNW 13.0 mph 13.0 mph 63 % 0.0 in 0.0 W/m2 CLR
23:35 -2.2 °F -9.2 °F 1024.9 in Calm     59 % 0.0 in 0.0 W/m2 CLR
23:40 -2.2 °F -9.2 °F 1024.9 in WSW 9.7 mph 9.7 mph 59 % 0.0 in 0.0 W/m2 CLR
23:45 -2.2 °F -8.9 °F 1024.9 in WSW 7.4 mph 7.4 mph 60 % 0.0 in 0.0 W/m2 CLR
23:50 -2.2 °F -8.9 °F 1024.9 in Calm     60 % 0.0 in 0.0 W/m2 CLR
23:55 -2.2 °F -8.7 °F 1024.9 in Calm     61 % 0.0 in 0.0 W/m2 CLR
Lo Temps de Massalio
Compliments of Weather Underground - 1.25 mb